Port Orchard, WA (98366)

4:54 AM PDT on September 05, 2015 (GMT -0700)
Boomers Landing | | Change Station
CLOSE
Current Station
Personal Weather Station
Location: Port Orchard, WA
Elevation: 233 ft
Nearby Weather Stations

Elev 233 ft 47.51 °N, 122.66 °W | Updated 50 seconds ago

Clear
Clear
42.8 °F
Feels Like 43 °F
N
0.0
Wind Variable Wind from SE
Gusts 0.0 mph

Today
High -- | Low -- °F
--% Chance of Precip.
Yesterday
High -- | Low -- °F
Precip. -- in
6:34 AM 7:43 PM
Waning Gibbous, 49% visible
Pressure 30.07 in
Visibility 10.0 miles
Clouds Clear
Windchill 43 °F
Dew Point 43 °F
Humidity 99%
Rainfall 0.00 in
Snow Depth Not available.
UV 0.0 out of 12
Pollen 3.60 out of 12
Air Quality Not available.
Flu Activity Not available.
METAR KPWT 051135Z AUTO 00000KT 10SM CLR 05/04 A3007 RMK AO1
Pressure 30.07 in
Visibility 10.0 miles
Clouds Clear
Windchill 43 °F
Dew Point 43 °F
Humidity 99%
Rainfall 0.00 in
Snow Depth Not available.
UV 0.0 out of 12
Pollen 3.60 out of 12
Air Quality Not available.
Flu Activity Not available.
METAR KPWT 051135Z AUTO 00000KT 10SM CLR 05/04 A3007 RMK AO1

10-Day Weather Forecast

×

Almanac

Astronomy

Sep. 05, 2015 Rise Set
Actual Time
Civil Twilight
Nautical Twilight
Astronomical Twilight
Moon
Length of Visible Light
Length of Day
Tomorrow will be .
, % of the Moon is Illuminated

Today's Extremes

State Highs State Lows

Community

WunderPhotos

Upload Photos

1,852,449 photos uploaded!

WunderBlogs® & News

Nearby

Air Quality

  Air Quality AQ Index Pollutant
Not available.

Snow Depth

Station Depth Elevation

Earthquake Activity

City Distance Mag. Time & Date
Minimum magnitude displayed is 2.5.

Coastal Water Temperatures

Place Temperature

Stations

Nearby Weather Stations

Station Location Temp. Windchill Dew Point Humidity Wind Precip. Elev Updated Type